sensor_id;sensor_type;location;lat;lon;timestamp;pressure;altitude;pressure_sealevel;temperature;humidity
21011;BME280;10663;42.714;23.274;2023-01-28T00:00:32;94154.25;;;0.03;95.43
21011;BME280;10663;42.714;23.274;2023-01-28T00:02:03;94157.94;;;-0.05;95.62
21011;BME280;10663;42.714;23.274;2023-01-28T00:03:34;94160.59;;;-0.12;95.98
21011;BME280;10663;42.714;23.274;2023-01-28T00:05:05;94156.53;;;-0.08;95.87
21011;BME280;10663;42.714;23.274;2023-01-28T00:06:37;94153.16;;;-0.08;95.80
21011;BME280;10663;42.714;23.274;2023-01-28T00:08:08;94158.59;;;-0.10;95.33
21011;BME280;10663;42.714;23.274;2023-01-28T00:09:41;94162.34;;;-0.06;95.08
21011;BME280;10663;42.714;23.274;2023-01-28T00:11:12;94166.16;;;-0.08;95.34
21011;BME280;10663;42.714;23.274;2023-01-28T00:12:43;94169.16;;;-0.05;95.55
21011;BME280;10663;42.714;23.274;2023-01-28T00:14:14;94171.59;;;-0.10;95.97
21011;BME280;10663;42.714;23.274;2023-01-28T00:15:54;94174.56;;;-0.06;95.37
21011;BME280;10663;42.714;23.274;2023-01-28T00:17:25;94172.75;;;-0.06;95.06
21011;BME280;10663;42.714;23.274;2023-01-28T00:18:55;94179.50;;;0.02;94.88
21011;BME280;10663;42.714;23.274;2023-01-28T00:20:26;94176.53;;;-0.02;95.09
21011;BME280;10663;42.714;23.274;2023-01-28T00:21:57;94183.09;;;0.01;94.84
21011;BME280;10663;42.714;23.274;2023-01-28T00:23:30;94191.94;;;0.00;94.85
21011;BME280;10663;42.714;23.274;2023-01-28T00:25:02;94185.56;;;-0.04;95.04
21011;BME280;10663;42.714;23.274;2023-01-28T00:26:33;94184.97;;;-0.06;94.52
21011;BME280;10663;42.714;23.274;2023-01-28T00:28:03;94185.56;;;-0.04;94.16
21011;BME280;10663;42.714;23.274;2023-01-28T00:29:34;94188.31;;;0.01;94.46
21011;BME280;10663;42.714;23.274;2023-01-28T00:31:06;94186.28;;;0.03;94.89
21011;BME280;10663;42.714;23.274;2023-01-28T00:32:39;94184.34;;;-0.02;94.78
21011;BME280;10663;42.714;23.274;2023-01-28T00:34:10;94194.09;;;0.03;94.88
21011;BME280;10663;42.714;23.274;2023-01-28T00:35:44;94187.94;;;-0.03;94.21
21011;BME280;10663;42.714;23.274;2023-01-28T00:37:15;94192.72;;;0.00;94.69
21011;BME280;10663;42.714;23.274;2023-01-28T00:38:50;94186.16;;;-0.02;94.46
21011;BME280;10663;42.714;23.274;2023-01-28T00:40:21;94186.75;;;0.00;94.92
21011;BME280;10663;42.714;23.274;2023-01-28T00:41:52;94182.16;;;-0.05;94.76
21011;BME280;10663;42.714;23.274;2023-01-28T00:43:24;94183.97;;;-0.05;94.64
21011;BME280;10663;42.714;23.274;2023-01-28T00:44:55;94177.09;;;0.00;95.27
21011;BME280;10663;42.714;23.274;2023-01-28T00:46:26;94196.34;;;-0.01;94.93
21011;BME280;10663;42.714;23.274;2023-01-28T00:47:57;94184.34;;;-0.02;95.03
21011;BME280;10663;42.714;23.274;2023-01-28T00:49:28;94192.94;;;-0.01;95.71
21011;BME280;10663;42.714;23.274;2023-01-28T00:50:59;94187.34;;;-0.05;95.63
21011;BME280;10663;42.714;23.274;2023-01-28T00:52:29;94195.81;;;-0.09;95.88
21011;BME280;10663;42.714;23.274;2023-01-28T00:54:00;94196.81;;;-0.10;95.85
21011;BME280;10663;42.714;23.274;2023-01-28T00:55:31;94190.44;;;-0.14;95.90
21011;BME280;10663;42.714;23.274;2023-01-28T00:57:02;94190.84;;;-0.17;96.23
21011;BME280;10663;42.714;23.274;2023-01-28T00:58:33;94195.47;;;-0.19;96.27
21011;BME280;10663;42.714;23.274;2023-01-28T01:00:05;94192.53;;;-0.29;96.09
21011;BME280;10663;42.714;23.274;2023-01-28T01:01:36;94191.28;;;-0.20;96.18
21011;BME280;10663;42.714;23.274;2023-01-28T01:03:07;94194.69;;;-0.20;96.13
21011;BME280;10663;42.714;23.274;2023-01-28T01:04:39;94197.06;;;-0.18;96.43
21011;BME280;10663;42.714;23.274;2023-01-28T01:06:12;94198.06;;;-0.19;96.14
21011;BME280;10663;42.714;23.274;2023-01-28T01:07:43;94194.47;;;-0.18;95.67
21011;BME280;10663;42.714;23.274;2023-01-28T01:09:14;94195.03;;;-0.16;95.77
21011;BME280;10663;42.714;23.274;2023-01-28T01:10:45;94193.88;;;-0.20;96.07
21011;BME280;10663;42.714;23.274;2023-01-28T01:12:16;94196.63;;;-0.15;95.88
21011;BME280;10663;42.714;23.274;2023-01-28T01:13:54;94195.84;;;-0.16;95.92
21011;BME280;10663;42.714;23.274;2023-01-28T01:15:28;94188.09;;;-0.22;95.90
21011;BME280;10663;42.714;23.274;2023-01-28T01:17:00;94193.28;;;-0.22;96.23
21011;BME280;10663;42.714;23.274;2023-01-28T01:18:31;94196.09;;;-0.24;96.08
21011;BME280;10663;42.714;23.274;2023-01-28T01:20:04;94193.91;;;-0.27;96.11
21011;BME280;10663;42.714;23.274;2023-01-28T01:21:36;94194.69;;;-0.20;96.24
21011;BME280;10663;42.714;23.274;2023-01-28T01:23:06;94194.47;;;-0.18;96.10
21011;BME280;10663;42.714;23.274;2023-01-28T01:24:37;94204.50;;;-0.22;96.24
21011;BME280;10663;42.714;23.274;2023-01-28T01:26:08;94200.94;;;-0.27;96.07
21011;BME280;10663;42.714;23.274;2023-01-28T01:27:39;94198.28;;;-0.21;96.32
21011;BME280;10663;42.714;23.274;2023-01-28T01:29:10;94200.50;;;-0.24;96.04
21011;BME280;10663;42.714;23.274;2023-01-28T01:30:42;94195.50;;;-0.26;96.34
21011;BME280;10663;42.714;23.274;2023-01-28T01:32:12;94200.69;;;-0.26;96.43
21011;BME280;10663;42.714;23.274;2023-01-28T01:33:46;94202.09;;;-0.23;96.35
21011;BME280;10663;42.714;23.274;2023-01-28T01:35:17;94198.91;;;-0.25;96.27
21011;BME280;10663;42.714;23.274;2023-01-28T01:36:48;94202.09;;;-0.23;96.46
21011;BME280;10663;42.714;23.274;2023-01-28T01:38:19;94204.09;;;-0.25;96.55
21011;BME280;10663;42.714;23.274;2023-01-28T01:39:50;94206.88;;;-0.20;96.24
21011;BME280;10663;42.714;23.274;2023-01-28T01:41:29;94206.91;;;-0.27;96.07
21011;BME280;10663;42.714;23.274;2023-01-28T01:43:00;94206.34;;;-0.29;96.11
21011;BME280;10663;42.714;23.274;2023-01-28T01:45:00;94204.53;;;-0.28;96.31
21011;BME280;10663;42.714;23.274;2023-01-28T01:46:48;94203.53;;;-0.27;96.46
21011;BME280;10663;42.714;23.274;2023-01-28T01:48:25;94202.56;;;-0.33;96.60
21011;BME280;10663;42.714;23.274;2023-01-28T01:50:03;94204.75;;;-0.30;96.33
21011;BME280;10663;42.714;23.274;2023-01-28T01:51:36;94202.50;;;-0.26;96.34
21011;BME280;10663;42.714;23.274;2023-01-28T01:53:11;94208.94;;;-0.29;96.83
21011;BME280;10663;42.714;23.274;2023-01-28T01:54:46;94207.34;;;-0.30;96.54
21011;BME280;10663;42.714;23.274;2023-01-28T01:56:21;94214.16;;;-0.29;96.10
21011;BME280;10663;42.714;23.274;2023-01-28T01:57:56;94206.91;;;-0.27;96.16
21011;BME280;10663;42.714;23.274;2023-01-28T01:59:30;94211.91;;;-0.25;95.81
21011;BME280;10663;42.714;23.274;2023-01-28T02:01:03;94206.34;;;-0.29;95.73
21011;BME280;10663;42.714;23.274;2023-01-28T02:02:42;94208.56;;;-0.32;95.50
21011;BME280;10663;42.714;23.274;2023-01-28T02:04:19;94205.34;;;-0.28;95.81
21011;BME280;10663;42.714;23.274;2023-01-28T02:05:52;94212.72;;;-0.25;95.87
21011;BME280;10663;42.714;23.274;2023-01-28T02:07:23;94207.50;;;-0.25;95.59
21011;BME280;10663;42.714;23.274;2023-01-28T02:08:55;94212.91;;;-0.26;95.34
21011;BME280;10663;42.714;23.274;2023-01-28T02:10:26;94213.50;;;-0.24;94.97
21011;BME280;10663;42.714;23.274;2023-01-28T02:12:10;94214.72;;;-0.27;95.38
21011;BME280;10663;42.714;23.274;2023-01-28T02:13:44;94219.72;;;-0.25;95.19
21011;BME280;10663;42.714;23.274;2023-01-28T02:15:19;94221.16;;;-0.29;95.50
21011;BME280;10663;42.714;23.274;2023-01-28T02:16:51;94227.34;;;-0.30;95.34
21011;BME280;10663;42.714;23.274;2023-01-28T02:18:22;94230.91;;;-0.25;95.47
21011;BME280;10663;42.714;23.274;2023-01-28T02:20:01;94220.50;;;-0.25;94.86
21011;BME280;10663;42.714;23.274;2023-01-28T02:23:40;94223.31;;;-0.26;95.25
21011;BME280;10663;42.714;23.274;2023-01-28T02:29:50;94223.56;;;-0.28;94.83
21011;BME280;10663;42.714;23.274;2023-01-28T02:31:35;94221.16;;;-0.36;94.96
21011;BME280;10663;42.714;23.274;2023-01-28T02:33:17;94223.75;;;-0.29;94.71
21011;BME280;10663;42.714;23.274;2023-01-28T02:35:36;94235.38;;;-0.32;94.69
21011;BME280;10663;42.714;23.274;2023-01-28T02:37:08;94220.56;;;-0.31;94.87
21011;BME280;10663;42.714;23.274;2023-01-28T02:38:47;94235.31;;;-0.25;94.73
21011;BME280;10663;42.714;23.274;2023-01-28T02:40:22;94221.34;;;-0.31;94.49
21011;BME280;10663;42.714;23.274;2023-01-28T02:42:17;94221.50;;;-0.26;94.85
21011;BME280;10663;42.714;23.274;2023-01-28T02:43:49;94220.56;;;-0.31;95.00
21011;BME280;10663;42.714;23.274;2023-01-28T02:45:30;94218.97;;;-0.32;95.17
21011;BME280;10663;42.714;23.274;2023-01-28T02:47:21;94225.59;;;-0.36;94.77
21011;BME280;10663;42.714;23.274;2023-01-28T02:51:04;94218.16;;;-0.33;94.60
21011;BME280;10663;42.714;23.274;2023-01-28T02:53:04;94227.56;;;-0.32;94.44
21011;BME280;10663;42.714;23.274;2023-01-28T02:55:05;94226.38;;;-0.36;94.58
21011;BME280;10663;42.714;23.274;2023-01-28T02:56:55;94217.56;;;-0.35;94.29
21011;BME280;10663;42.714;23.274;2023-01-28T03:00:11;94227.56;;;-0.32;94.58
21011;BME280;10663;42.714;23.274;2023-01-28T03:01:47;94227.41;;;-0.37;94.41
21011;BME280;10663;42.714;23.274;2023-01-28T03:03:27;94235.97;;;-0.30;94.75
21011;BME280;10663;42.714;23.274;2023-01-28T03:05:12;94225.81;;;-0.38;94.10
21011;BME280;10663;42.714;23.274;2023-01-28T03:06:49;94235.00;;;-0.42;94.59
21011;BME280;10663;42.714;23.274;2023-01-28T03:08:23;94236.03;;;-0.43;94.14
21011;BME280;10663;42.714;23.274;2023-01-28T03:10:19;94227.16;;;-0.35;94.06
21011;BME280;10663;42.714;23.274;2023-01-28T03:12:04;94238.00;;;-0.39;94.06
21011;BME280;10663;42.714;23.274;2023-01-28T03:13:55;94240.63;;;-0.45;94.18
21011;BME280;10663;42.714;23.274;2023-01-28T03:15:48;94236.22;;;-0.45;94.06
21011;BME280;10663;42.714;23.274;2023-01-28T03:17:51;94233.81;;;-0.40;94.25
21011;BME280;10663;42.714;23.274;2023-01-28T03:19:44;94229.84;;;-0.49;94.26
21011;BME280;10663;42.714;23.274;2023-01-28T03:21:40;94240.06;;;-0.47;94.70
21011;BME280;10663;42.714;23.274;2023-01-28T03:24:05;94247.06;;;-0.48;94.95
21011;BME280;10663;42.714;23.274;2023-01-28T03:25:57;94246.41;;;-0.43;94.58
21011;BME280;10663;42.714;23.274;2023-01-28T03:27:53;94246.22;;;-0.42;95.08
21011;BME280;10663;42.714;23.274;2023-01-28T03:29:47;94243.66;;;-0.48;94.92
21011;BME280;10663;42.714;23.274;2023-01-28T03:31:39;94236.03;;;-0.43;94.88
21011;BME280;10663;42.714;23.274;2023-01-28T03:33:30;94243.47;;;-0.47;95.32
21011;BME280;10663;42.714;23.274;2023-01-28T03:35:22;94237.72;;;-0.62;95.38
21011;BME280;10663;42.714;23.274;2023-01-28T03:37:13;94236.22;;;-0.45;95.88
21011;BME280;10663;42.714;23.274;2023-01-28T03:38:51;94255.03;;;-0.43;95.96
21011;BME280;10663;42.714;23.274;2023-01-28T03:40:22;94248.44;;;-0.45;95.78
21011;BME280;10663;42.714;23.274;2023-01-28T03:42:09;94245.50;;;-0.55;95.75
21011;BME280;10663;42.714;23.274;2023-01-28T03:43:50;94249.66;;;-0.48;95.82
21011;BME280;10663;42.714;23.274;2023-01-28T03:45:21;94243.25;;;-0.52;95.49
21011;BME280;10663;42.714;23.274;2023-01-28T03:46:53;94248.09;;;-0.55;95.87
21011;BME280;10663;42.714;23.274;2023-01-28T03:48:25;94254.72;;;-0.59;95.70
21011;BME280;10663;42.714;23.274;2023-01-28T03:49:58;94255.91;;;-0.62;95.81
21011;BME280;10663;42.714;23.274;2023-01-28T03:51:31;94244.31;;;-0.59;95.65
21011;BME280;10663;42.714;23.274;2023-01-28T03:53:01;94253.06;;;-0.54;95.70
21011;BME280;10663;42.714;23.274;2023-01-28T03:54:49;94255.91;;;-0.62;95.71
21011;BME280;10663;42.714;23.274;2023-01-28T03:56:22;94257.50;;;-0.61;95.92
21011;BME280;10663;42.714;23.274;2023-01-28T03:57:58;94249.53;;;-0.66;95.92
21011;BME280;10663;42.714;23.274;2023-01-28T03:59:28;94252.94;;;-0.65;95.93
21011;BME280;10663;42.714;23.274;2023-01-28T04:00:59;94256.75;;;-0.68;95.31
21011;BME280;10663;42.714;23.274;2023-01-28T04:02:30;94260.31;;;-0.62;95.24
21011;BME280;10663;42.714;23.274;2023-01-28T04:04:02;94263.91;;;-0.63;95.47
21011;BME280;10663;42.714;23.274;2023-01-28T04:05:33;94264.75;;;-0.69;95.79
21011;BME280;10663;42.714;23.274;2023-01-28T04:07:06;94262.53;;;-0.72;95.66
21011;BME280;10663;42.714;23.274;2023-01-28T04:09:00;94257.53;;;-0.67;95.69
21011;BME280;10663;42.714;23.274;2023-01-28T04:10:44;94280.31;;;-0.56;95.68
21011;BME280;10663;42.714;23.274;2023-01-28T04:12:23;94270.28;;;-0.53;95.12
21011;BME280;10663;42.714;23.274;2023-01-28T04:13:56;94279.31;;;-0.62;94.97
21011;BME280;10663;42.714;23.274;2023-01-28T04:15:28;94268.34;;;-0.64;95.15
21011;BME280;10663;42.714;23.274;2023-01-28T04:17:01;94272.75;;;-0.71;95.19
21011;BME280;10663;42.714;23.274;2023-01-28T04:18:32;94269.91;;;-0.56;95.27
21011;BME280;10663;42.714;23.274;2023-01-28T04:20:03;94290.91;;;-0.58;94.99
21011;BME280;10663;42.714;23.274;2023-01-28T04:21:34;94281.31;;;-0.57;94.95
21011;BME280;10663;42.714;23.274;2023-01-28T04:23:07;94278.69;;;-0.57;94.89
21011;BME280;10663;42.714;23.274;2023-01-28T04:24:39;94284.28;;;-0.54;95.20
21011;BME280;10663;42.714;23.274;2023-01-28T04:26:09;94287.50;;;-0.58;94.79
21011;BME280;10663;42.714;23.274;2023-01-28T04:27:41;94284.09;;;-0.59;95.33
21011;BME280;10663;42.714;23.274;2023-01-28T04:29:21;94278.09;;;-0.59;95.32
21011;BME280;10663;42.714;23.274;2023-01-28T04:30:54;94284.91;;;-0.58;95.70
21011;BME280;10663;42.714;23.274;2023-01-28T04:32:45;94281.34;;;-0.64;95.82
21011;BME280;10663;42.714;23.274;2023-01-28T04:34:39;94278.72;;;-0.64;96.38
21011;BME280;10663;42.714;23.274;2023-01-28T04:36:40;94286.94;;;-0.67;96.90
21011;BME280;10663;42.714;23.274;2023-01-28T04:38:27;94282.53;;;-0.66;97.26
21011;BME280;10663;42.714;23.274;2023-01-28T04:40:06;94287.75;;;-0.73;97.63
21011;BME280;10663;42.714;23.274;2023-01-28T04:41:45;94292.53;;;-0.70;98.03
21011;BME280;10663;42.714;23.274;2023-01-28T04:43:35;94296.56;;;-0.74;97.81
21011;BME280;10663;42.714;23.274;2023-01-28T04:45:24;94299.16;;;-0.81;98.04
21011;BME280;10663;42.714;23.274;2023-01-28T04:47:03;94297.00;;;-0.84;98.00
21011;BME280;10663;42.714;23.274;2023-01-28T04:48:49;94308.94;;;-0.69;97.94
21011;BME280;10663;42.714;23.274;2023-01-28T04:50:35;94308.56;;;-0.73;98.20
21011;BME280;10663;42.714;23.274;2023-01-28T04:52:17;94310.56;;;-0.82;97.84
21011;BME280;10663;42.714;23.274;2023-01-28T04:54:00;94296.38;;;-0.86;97.88
21011;BME280;10663;42.714;23.274;2023-01-28T04:55:35;94311.94;;;-0.72;98.29
21011;BME280;10663;42.714;23.274;2023-01-28T04:57:06;94310.97;;;-0.78;98.35
21011;BME280;10663;42.714;23.274;2023-01-28T04:58:39;94302.00;;;-0.82;98.26
21011;BME280;10663;42.714;23.274;2023-01-28T05:00:16;94300.75;;;-0.80;98.05
21011;BME280;10663;42.714;23.274;2023-01-28T05:01:47;94312.78;;;-0.85;98.05
21011;BME280;10663;42.714;23.274;2023-01-28T05:03:18;94312.75;;;-0.79;98.04
21011;BME280;10663;42.714;23.274;2023-01-28T05:04:49;94306.75;;;-0.79;98.01
21011;BME280;10663;42.714;23.274;2023-01-28T05:06:35;94311.78;;;-0.84;97.80
21011;BME280;10663;42.714;23.274;2023-01-28T05:08:12;94303.38;;;-0.80;97.55
21011;BME280;10663;42.714;23.274;2023-01-28T05:09:43;94323.34;;;-0.73;97.31
21011;BME280;10663;42.714;23.274;2023-01-28T05:11:14;94306.72;;;-0.72;96.81
21011;BME280;10663;42.714;23.274;2023-01-28T05:12:46;94322.34;;;-0.66;96.93
21011;BME280;10663;42.714;23.274;2023-01-28T05:14:17;94330.72;;;-0.70;96.24
21011;BME280;10663;42.714;23.274;2023-01-28T05:15:59;94320.13;;;-0.69;96.72
21011;BME280;10663;42.714;23.274;2023-01-28T05:17:30;94318.50;;;-0.63;97.04
21011;BME280;10663;42.714;23.274;2023-01-28T05:19:01;94319.34;;;-0.69;97.20
21011;BME280;10663;42.714;23.274;2023-01-28T05:20:38;94317.94;;;-0.72;96.65
21011;BME280;10663;42.714;23.274;2023-01-28T05:22:09;94335.53;;;-0.67;96.61
21011;BME280;10663;42.714;23.274;2023-01-28T05:23:45;94335.13;;;-0.71;96.35
21011;BME280;10663;42.714;23.274;2023-01-28T05:25:16;94340.13;;;-0.69;96.16
21011;BME280;10663;42.714;23.274;2023-01-28T05:26:48;94332.34;;;-0.76;95.92
21011;BME280;10663;42.714;23.274;2023-01-28T05:28:19;94340.72;;;-0.67;96.19
21011;BME280;10663;42.714;23.274;2023-01-28T05:29:51;94324.13;;;-0.66;95.81
21011;BME280;10663;42.714;23.274;2023-01-28T05:31:22;94339.31;;;-0.63;96.06
21011;BME280;10663;42.714;23.274;2023-01-28T05:32:54;94326.75;;;-0.80;95.38
21011;BME280;10663;42.714;23.274;2023-01-28T05:34:26;94350.91;;;-0.72;95.33
21011;BME280;10663;42.714;23.274;2023-01-28T05:35:59;94340.94;;;-0.76;95.08
21011;BME280;10663;42.714;23.274;2023-01-28T05:37:29;94341.94;;;-0.77;95.56
21011;BME280;10663;42.714;23.274;2023-01-28T05:39:01;94345.94;;;-0.67;95.06
21011;BME280;10663;42.714;23.274;2023-01-28T05:40:33;94350.28;;;-0.61;94.94
21011;BME280;10663;42.714;23.274;2023-01-28T05:42:03;94341.13;;;-0.70;95.00
21011;BME280;10663;42.714;23.274;2023-01-28T05:43:37;94335.94;;;-0.70;95.47
21011;BME280;10663;42.714;23.274;2023-01-28T05:45:20;94345.94;;;-0.67;95.11
21011;BME280;10663;42.714;23.274;2023-01-28T05:47:07;94358.09;;;-0.61;94.98
21011;BME280;10663;42.714;23.274;2023-01-28T05:49:04;94346.69;;;-0.60;94.47
21011;BME280;10663;42.714;23.274;2023-01-28T05:50:56;94346.31;;;-0.57;94.52
21011;BME280;10663;42.714;23.274;2023-01-28T05:52:42;94339.69;;;-0.60;94.35
21011;BME280;10663;42.714;23.274;2023-01-28T05:54:21;94351.94;;;-0.67;94.51
21011;BME280;10663;42.714;23.274;2023-01-28T05:55:52;94337.53;;;-0.69;94.35
21011;BME280;10663;42.714;23.274;2023-01-28T05:57:23;94338.53;;;-0.64;94.40
21011;BME280;10663;42.714;23.274;2023-01-28T05:58:55;94350.53;;;-0.69;94.26
21011;BME280;10663;42.714;23.274;2023-01-28T06:00:26;94354.69;;;-0.62;94.02
21011;BME280;10663;42.714;23.274;2023-01-28T06:01:57;94351.50;;;-0.57;94.15
21011;BME280;10663;42.714;23.274;2023-01-28T06:03:28;94364.50;;;-0.57;94.09
21011;BME280;10663;42.714;23.274;2023-01-28T06:05:00;94369.09;;;-0.59;94.04
21011;BME280;10663;42.714;23.274;2023-01-28T06:06:31;94372.69;;;-0.60;93.80
21011;BME280;10663;42.714;23.274;2023-01-28T06:08:02;94359.53;;;-0.72;94.32
21011;BME280;10663;42.714;23.274;2023-01-28T06:09:33;94369.72;;;-0.70;94.50
21011;BME280;10663;42.714;23.274;2023-01-28T06:11:04;94378.34;;;-0.77;94.16
21011;BME280;10663;42.714;23.274;2023-01-28T06:12:39;94373.09;;;-0.63;94.80
21011;BME280;10663;42.714;23.274;2023-01-28T06:14:28;94377.13;;;-0.67;94.65
21011;BME280;10663;42.714;23.274;2023-01-28T06:16:34;94390.28;;;-0.62;94.24
21011;BME280;10663;42.714;23.274;2023-01-28T06:18:28;94399.50;;;-0.66;94.05
21011;BME280;10663;42.714;23.274;2023-01-28T06:19:59;94396.50;;;-0.70;94.24
21011;BME280;10663;42.714;23.274;2023-01-28T06:21:31;94409.31;;;-0.68;94.15
21011;BME280;10663;42.714;23.274;2023-01-28T06:23:02;94396.31;;;-0.68;94.17
21011;BME280;10663;42.714;23.274;2023-01-28T06:24:33;94401.50;;;-0.68;94.13
21011;BME280;10663;42.714;23.274;2023-01-28T06:26:04;94400.72;;;-0.69;93.89
21011;BME280;10663;42.714;23.274;2023-01-28T06:27:35;94399.09;;;-0.63;94.26
21011;BME280;10663;42.714;23.274;2023-01-28T06:29:06;94404.69;;;-0.60;94.30
21011;BME280;10663;42.714;23.274;2023-01-28T06:30:36;94405.31;;;-0.58;94.13
21011;BME280;10663;42.714;23.274;2023-01-28T06:32:07;94403.91;;;-0.60;94.19
21011;BME280;10663;42.714;23.274;2023-01-28T06:33:38;94397.91;;;-0.61;94.06
21011;BME280;10663;42.714;23.274;2023-01-28T06:35:09;94408.91;;;-0.65;94.34
21011;BME280;10663;42.714;23.274;2023-01-28T06:36:41;94410.91;;;-0.61;94.04
21011;BME280;10663;42.714;23.274;2023-01-28T06:38:12;94406.50;;;-0.60;93.87
21011;BME280;10663;42.714;23.274;2023-01-28T06:39:43;94411.09;;;-0.62;94.10
21011;BME280;10663;42.714;23.274;2023-01-28T06:41:13;94414.69;;;-0.57;94.14
21011;BME280;10663;42.714;23.274;2023-01-28T06:42:44;94416.88;;;-0.54;93.81
21011;BME280;10663;42.714;23.274;2023-01-28T06:44:15;94417.09;;;-0.62;93.71
21011;BME280;10663;42.714;23.274;2023-01-28T06:45:46;94418.50;;;-0.59;93.67
21011;BME280;10663;42.714;23.274;2023-01-28T06:47:18;94413.69;;;-0.49;93.74
21011;BME280;10663;42.714;23.274;2023-01-28T06:48:49;94426.28;;;-0.46;93.49
21011;BME280;10663;42.714;23.274;2023-01-28T06:50:20;94424.06;;;-0.43;93.12
21011;BME280;10663;42.714;23.274;2023-01-28T06:51:51;94434.66;;;-0.44;92.81
21011;BME280;10663;42.714;23.274;2023-01-28T06:53:22;94433.84;;;-0.45;93.22
21011;BME280;10663;42.714;23.274;2023-01-28T06:54:53;94438.88;;;-0.43;93.13
21011;BME280;10663;42.714;23.274;2023-01-28T06:56:23;94436.47;;;-0.45;92.96
21011;BME280;10663;42.714;23.274;2023-01-28T06:57:55;94431.50;;;-0.46;93.26
21011;BME280;10663;42.714;23.274;2023-01-28T06:59:25;94431.47;;;-0.53;93.45
21011;BME280;10663;42.714;23.274;2023-01-28T07:00:56;94443.88;;;-0.42;93.32
21011;BME280;10663;42.714;23.274;2023-01-28T07:02:27;94445.50;;;-0.47;93.03
21011;BME280;10663;42.714;23.274;2023-01-28T07:03:58;94454.25;;;-0.35;92.71
21011;BME280;10663;42.714;23.274;2023-01-28T07:05:29;94435.25;;;-0.42;92.84
21011;BME280;10663;42.714;23.274;2023-01-28T07:06:59;94444.84;;;-0.36;92.99
21011;BME280;10663;42.714;23.274;2023-01-28T07:08:30;94445.47;;;-0.41;92.84
21011;BME280;10663;42.714;23.274;2023-01-28T07:10:02;94454.06;;;-0.40;93.22
21011;BME280;10663;42.714;23.274;2023-01-28T07:11:33;94447.44;;;-0.29;92.75
21011;BME280;10663;42.714;23.274;2023-01-28T07:13:04;94453.06;;;-0.32;92.60
21011;BME280;10663;42.714;23.274;2023-01-28T07:14:35;94449.84;;;-0.34;92.70
21011;BME280;10663;42.714;23.274;2023-01-28T07:16:06;94450.66;;;-0.27;92.57
21011;BME280;10663;42.714;23.274;2023-01-28T07:17:41;94457.66;;;-0.34;93.26
21011;BME280;10663;42.714;23.274;2023-01-28T07:19:14;94462.44;;;-0.25;92.81
21011;BME280;10663;42.714;23.274;2023-01-28T07:20:45;94454.47;;;-0.36;93.21
21011;BME280;10663;42.714;23.274;2023-01-28T07:22:16;94464.00;;;-0.17;92.57
21011;BME280;10663;42.714;23.274;2023-01-28T07:23:47;94464.22;;;-0.12;92.31
21011;BME280;10663;42.714;23.274;2023-01-28T07:25:18;94467.84;;;-0.20;92.32
21011;BME280;10663;42.714;23.274;2023-01-28T07:26:49;94459.25;;;-0.20;92.08
21011;BME280;10663;42.714;23.274;2023-01-28T07:28:20;94468.84;;;-0.21;92.02
21011;BME280;10663;42.714;23.274;2023-01-28T07:29:51;94473.44;;;-0.23;92.24
21011;BME280;10663;42.714;23.274;2023-01-28T07:31:22;94471.63;;;-0.09;91.61
21011;BME280;10663;42.714;23.274;2023-01-28T07:32:54;94474.00;;;-0.08;91.58
21011;BME280;10663;42.714;23.274;2023-01-28T07:34:25;94473.38;;;0.04;91.20
21011;BME280;10663;42.714;23.274;2023-01-28T07:35:56;94473.78;;;0.07;91.03
21011;BME280;10663;42.714;23.274;2023-01-28T07:37:27;94475.22;;;-0.10;90.99
21011;BME280;10663;42.714;23.274;2023-01-28T07:38:58;94468.69;;;0.19;90.83
21011;BME280;10663;42.714;23.274;2023-01-28T07:40:29;94483.44;;;-0.13;90.82
21011;BME280;10663;42.714;23.274;2023-01-28T07:42:00;94478.59;;;-0.03;91.17
21011;BME280;10663;42.714;23.274;2023-01-28T07:43:42;94487.72;;;0.26;90.16
21011;BME280;10663;42.714;23.274;2023-01-28T07:45:13;94478.34;;;0.12;89.95
21011;BME280;10663;42.714;23.274;2023-01-28T07:46:44;94485.97;;;0.13;90.08
21011;BME280;10663;42.714;23.274;2023-01-28T07:48:15;94487.16;;;0.17;90.08
21011;BME280;10663;42.714;23.274;2023-01-28T07:49:47;94489.75;;;0.17;89.68
21011;BME280;10663;42.714;23.274;2023-01-28T07:51:18;94490.56;;;0.18;90.01
21011;BME280;10663;42.714;23.274;2023-01-28T07:52:48;94489.16;;;0.15;89.37
21011;BME280;10663;42.714;23.274;2023-01-28T07:54:19;94488.94;;;0.23;89.04
21011;BME280;10663;42.714;23.274;2023-01-28T07:55:50;94491.75;;;0.15;88.99
21011;BME280;10663;42.714;23.274;2023-01-28T07:57:21;94502.91;;;0.29;89.21
21011;BME280;10663;42.714;23.274;2023-01-28T07:58:55;94496.94;;;0.22;89.12
21011;BME280;10663;42.714;23.274;2023-01-28T08:00:28;94488.13;;;0.23;88.95
21011;BME280;10663;42.714;23.274;2023-01-28T08:01:59;94504.94;;;0.27;89.50
21011;BME280;10663;42.714;23.274;2023-01-28T08:03:30;94493.31;;;0.29;89.08
21011;BME280;10663;42.714;23.274;2023-01-28T08:05:02;94495.94;;;0.23;88.64
21011;BME280;10663;42.714;23.274;2023-01-28T08:06:33;94496.91;;;0.28;88.83
21011;BME280;10663;42.714;23.274;2023-01-28T08:08:08;94501.66;;;0.45;88.50
21011;BME280;10663;42.714;23.274;2023-01-28T08:09:39;94503.25;;;0.46;88.03
21011;BME280;10663;42.714;23.274;2023-01-28T08:11:10;94510.69;;;0.42;88.50
21011;BME280;10663;42.714;23.274;2023-01-28T08:12:50;94504.44;;;0.50;88.30
21011;BME280;10663;42.714;23.274;2023-01-28T08:14:21;94509.66;;;0.50;87.90
21011;BME280;10663;42.714;23.274;2023-01-28T08:15:54;94516.81;;;0.61;87.89
21011;BME280;10663;42.714;23.274;2023-01-28T08:17:26;94510.00;;;0.60;87.34
21011;BME280;10663;42.714;23.274;2023-01-28T08:18:57;94520.38;;;0.66;87.13
21011;BME280;10663;42.714;23.274;2023-01-28T08:20:29;94526.66;;;0.59;87.22
21011;BME280;10663;42.714;23.274;2023-01-28T08:22:00;94519.22;;;0.62;87.35
21011;BME280;10663;42.714;23.274;2023-01-28T08:23:31;94513.78;;;0.70;87.05
21011;BME280;10663;42.714;23.274;2023-01-28T08:25:04;94509.47;;;0.83;86.55
21011;BME280;10663;42.714;23.274;2023-01-28T08:26:35;94522.38;;;0.71;86.67
21011;BME280;10663;42.714;23.274;2023-01-28T08:28:06;94528.16;;;0.73;86.54
21011;BME280;10663;42.714;23.274;2023-01-28T08:29:37;94524.44;;;0.62;86.03